Wetterstation Vordersexau
Wetterdaten: Woche 24.07.23 - 30.07.23 (KW30)
Datum Zeit Temp. A. Feuchte A. Luftdruck Regen Wind Richtung Taupunkt Windchill Windben
24.07.2023 00:00 18,5 C 76 % 1005,8 hPa 0,0 l/m 0,0 km/h (0 Bft) N 14,2 C 18,5 C 2,5 km/h (1 Bft)
24.07.2023 01:00 18,8 C 75 % 1005,5 hPa 0,0 l/m 0,0 km/h (0 Bft) N 14,3 C 18,8 C 0,0 km/h (0 Bft)
24.07.2023 02:00 18,5 C 75 % 1005,1 hPa 0,0 l/m 0,0 km/h (0 Bft) SO 14,0 C 18,5 C 2,5 km/h (1 Bft)
24.07.2023 03:00 18,1 C 76 % 1004,5 hPa 0,0 l/m 2,5 km/h (1 Bft) N 13,8 C 18,1 C 3,6 km/h (1 Bft)
24.07.2023 04:00 17,2 C 79 % 1004,0 hPa 0,0 l/m 0,0 km/h (0 Bft) O-NO 13,5 C 17,2 C 2,5 km/h (1 Bft)
24.07.2023 05:00 17,5 C 79 % 1003,5 hPa 0,0 l/m 3,6 km/h (1 Bft) N 13,8 C 17,5 C 3,6 km/h (1 Bft)
24.07.2023 06:00 17,3 C 80 % 1003,4 hPa 0,0 l/m 0,0 km/h (0 Bft) SO 13,8 C 17,3 C 2,5 km/h (1 Bft)
24.07.2023 07:00 17,5 C 79 % 1003,8 hPa 0,0 l/m 3,6 km/h (1 Bft) NO 13,8 C 17,5 C 3,6 km/h (1 Bft)
24.07.2023 08:00 17,3 C 86 % 1004,0 hPa 0,0 l/m 2,5 km/h (1 Bft) NO 14,9 C 17,3 C 6,1 km/h (2 Bft)
24.07.2023 09:00 19,7 C 81 % 1003,9 hPa 0,0 l/m 1,1 km/h (1 Bft) N-NW 16,3 C 19,7 C 2,5 km/h (1 Bft)
24.07.2023 10:00 21,7 C 73 % 1004,6 hPa 0,0 l/m 2,5 km/h (1 Bft) N 16,6 C 21,7 C 3,6 km/h (1 Bft)
24.07.2023 11:00 19,8 C 89 % 1003,4 hPa 0,3 l/m 0,0 km/h (0 Bft) S-SW 17,9 C 19,8 C 2,5 km/h (1 Bft)
24.07.2023 12:00 18,8 C 93 % 1005,6 hPa 2,1 l/m 5,0 km/h (1 Bft) S-SO 17,6 C 18,8 C 7,2 km/h (2 Bft)
24.07.2023 13:00 18,0 C 93 % 1005,2 hPa 6,0 l/m 9,7 km/h (2 Bft) NW 16,8 C 16,5 C 13,3 km/h (3 Bft)
24.07.2023 14:00 20,9 C 83 % 1004,0 hPa 1,2 l/m 1,1 km/h (1 Bft) W-SW 17,9 C 20,9 C 3,6 km/h (1 Bft)
24.07.2023 15:00 20,8 C 75 % 1003,9 hPa 0,0 l/m 12,2 km/h (2 Bft) S 16,2 C 18,9 C 14,8 km/h (3 Bft)
24.07.2023 16:00 20,7 C 76 % 1003,1 hPa 0,0 l/m 3,6 km/h (1 Bft) SO 16,3 C 20,7 C 6,1 km/h (2 Bft)
24.07.2023 17:00 21,5 C 75 % 1002,7 hPa 0,0 l/m 2,5 km/h (1 Bft) W-SW 16,9 C 21,5 C 7,2 km/h (2 Bft)
24.07.2023 18:00 22,2 C 71 % 1002,9 hPa 0,0 l/m 12,2 km/h (2 Bft) SW 16,7 C 20,5 C 14,8 km/h (3 Bft)
24.07.2023 19:00 23,4 C 69 % 1002,3 hPa 0,0 l/m 9,7 km/h (2 Bft) W-NW 17,4 C 22,5 C 14,8 km/h (3 Bft)
24.07.2023 20:00 20,8 C 88 % 1002,9 hPa 0,3 l/m 1,1 km/h (1 Bft) W 18,7 C 20,8 C 3,6 km/h (1 Bft)
24.07.2023 21:00 21,1 C 81 % 1002,9 hPa 0,0 l/m 2,5 km/h (1 Bft) N 17,7 C 21,1 C 3,6 km/h (1 Bft)
24.07.2023 22:00 19,5 C 91 % 1002,8 hPa 0,0 l/m 0,0 km/h (0 Bft) N 18,0 C 19,5 C 0,0 km/h (0 Bft)
24.07.2023 23:00 18,0 C 94 % 1003,0 hPa 0,0 l/m 0,0 km/h (0 Bft) N 17,0 C 18,0 C 0,0 km/h (0 Bft)
25.07.2023 00:00 17,1 C 95 % 1003,1 hPa 0,0 l/m 0,0 km/h (0 Bft) SO 16,3 C 17,1 C 0,0 km/h (0 Bft)
25.07.2023 01:00 16,3 C 95 % 1003,0 hPa 0,0 l/m 3,6 km/h (1 Bft) N 15,5 C 16,3 C 6,1 km/h (2 Bft)
25.07.2023 02:00 15,7 C 97 % 1002,2 hPa 0,0 l/m 0,0 km/h (0 Bft) O-SO 15,2 C 15,7 C 0,0 km/h (0 Bft)
25.07.2023 03:00 15,3 C 96 % 1002,1 hPa 0,0 l/m 2,5 km/h (1 Bft) O 14,7 C 15,3 C 6,1 km/h (2 Bft)
25.07.2023 04:00 15,0 C 96 % 1001,6 hPa 0,0 l/m 1,1 km/h (1 Bft) N 14,4 C 15,0 C 3,6 km/h (1 Bft)
25.07.2023 05:00 14,3 C 97 % 1001,3 hPa 0,0 l/m 0,0 km/h (0 Bft) NO 13,8 C 14,3 C 0,0 km/h (0 Bft)
25.07.2023 06:00 14,0 C 97 % 1001,1 hPa 0,0 l/m 1,1 km/h (1 Bft) SO 13,5 C 14,0 C 2,5 km/h (1 Bft)
25.07.2023 07:00 14,6 C 98 % 1001,8 hPa 0,0 l/m 1,1 km/h (1 Bft) O-SO 14,3 C 14,6 C 2,5 km/h (1 Bft)
25.07.2023 08:00 15,7 C 95 % 1001,9 hPa 0,0 l/m 1,1 km/h (1 Bft) SW 14,9 C 15,7 C 2,5 km/h (1 Bft)
25.07.2023 09:00 16,3 C 96 % 1002,0 hPa 3,3 l/m 1,1 km/h (1 Bft) W 15,7 C 16,3 C 3,6 km/h (1 Bft)
25.07.2023 10:00 18,1 C 92 % 1001,8 hPa 0,0 l/m 2,5 km/h (1 Bft) S 16,8 C 18,1 C 6,1 km/h (2 Bft)
25.07.2023 11:00 19,7 C 76 % 1001,6 hPa 0,0 l/m 15,8 km/h (3 Bft) S-SW 15,3 C 16,7 C 24,5 km/h (4 Bft)
25.07.2023 12:00 21,0 C 69 % 1001,6 hPa 0,0 l/m 12,2 km/h (2 Bft) W-SW 15,1 C 19,1 C 14,8 km/h (3 Bft)
25.07.2023 13:00 20,9 C 69 % 1001,8 hPa 0,0 l/m 13,3 km/h (3 Bft) S 15,0 C 18,7 C 18,4 km/h (3 Bft)
25.07.2023 14:00 22,2 C 62 % 1001,4 hPa 0,0 l/m 12,2 km/h (2 Bft) W-SW 14,6 C 20,5 C 17,3 km/h (3 Bft)
25.07.2023 15:00 18,0 C 80 % 1002,3 hPa 0,0 l/m 8,6 km/h (2 Bft) W 14,5 C 17,0 C 14,8 km/h (3 Bft)
25.07.2023 16:00 22,1 C 63 % 1002,0 hPa 0,0 l/m 11,2 km/h (2 Bft) W-SW 14,7 C 20,6 C 14,8 km/h (3 Bft)
25.07.2023 17:00 17,7 C 83 % 1002,6 hPa 0,0 l/m 9,7 km/h (2 Bft) N 14,8 C 16,2 C 13,3 km/h (3 Bft)
25.07.2023 18:00 16,7 C 89 % 1003,5 hPa 0,0 l/m 2,5 km/h (1 Bft) SW 14,9 C 16,7 C 6,1 km/h (2 Bft)
25.07.2023 19:00 15,2 C 90 % 1005,0 hPa 1,8 l/m 3,6 km/h (1 Bft) W-SW 13,6 C 15,2 C 6,1 km/h (2 Bft)
25.07.2023 20:00 15,0 C 93 % 1005,7 hPa 1,5 l/m 2,5 km/h (1 Bft) W 13,9 C 15,0 C 3,6 km/h (1 Bft)
25.07.2023 21:00 14,7 C 95 % 1006,2 hPa 1,2 l/m 5,0 km/h (1 Bft) SW 13,9 C 14,7 C 6,1 km/h (2 Bft)
25.07.2023 22:00 14,6 C 97 % 1007,1 hPa 0,6 l/m 1,1 km/h (1 Bft) W 14,1 C 14,6 C 2,5 km/h (1 Bft)
25.07.2023 23:00 14,5 C 98 % 1007,6 hPa 0,0 l/m 3,6 km/h (1 Bft) W 14,2 C 14,5 C 6,1 km/h (2 Bft)
26.07.2023 00:00 14,5 C 98 % 1008,4 hPa 0,0 l/m 3,6 km/h (1 Bft) W-SW 14,2 C 14,5 C 6,1 km/h (2 Bft)
26.07.2023 01:00 14,1 C 98 % 1009,0 hPa 0,0 l/m 2,5 km/h (1 Bft) N 13,8 C 14,1 C 3,6 km/h (1 Bft)
26.07.2023 02:00 14,1 C 98 % 1009,3 hPa 0,0 l/m 0,0 km/h (0 Bft) W-SW 13,8 C 14,1 C 0,0 km/h (0 Bft)
26.07.2023 03:00 14,1 C 98 % 1009,6 hPa 0,0 l/m 2,5 km/h (1 Bft) W-SW 13,8 C 14,1 C 3,6 km/h (1 Bft)
26.07.2023 04:00 13,6 C 96 % 1010,1 hPa 0,0 l/m 3,6 km/h (1 Bft) N 13,0 C 13,6 C 6,1 km/h (2 Bft)
26.07.2023 05:00 12,7 C 95 % 1010,4 hPa 0,0 l/m 0,0 km/h (0 Bft) N 11,9 C 12,7 C 0,0 km/h (0 Bft)
26.07.2023 06:00 12,7 C 97 % 1010,7 hPa 0,0 l/m 0,0 km/h (0 Bft) N 12,2 C 12,7 C 0,0 km/h (0 Bft)
26.07.2023 07:00 12,2 C 98 % 1010,6 hPa 0,0 l/m 0,0 km/h (0 Bft) N 11,9 C 12,2 C 2,5 km/h (1 Bft)
26.07.2023 08:00 12,5 C 98 % 1011,3 hPa 0,0 l/m 0,0 km/h (0 Bft) S-SW 12,2 C 12,5 C 0,0 km/h (0 Bft)
26.07.2023 09:00 13,3 C 94 % 1011,7 hPa 0,3 l/m 2,5 km/h (1 Bft) N 12,4 C 13,3 C 6,1 km/h (2 Bft)
26.07.2023 10:00 13,9 C 90 % 1011,6 hPa 0,3 l/m 0,0 km/h (0 Bft) W 12,3 C 13,9 C 0,0 km/h (0 Bft)
26.07.2023 11:00 16,0 C 84 % 1011,7 hPa 0,0 l/m 8,6 km/h (2 Bft) W-SW 13,3 C 14,9 C 11,2 km/h (2 Bft)
26.07.2023 12:00 16,5 C 76 % 1011,5 hPa 0,0 l/m 8,6 km/h (2 Bft) SW 12,3 C 15,4 C 11,2 km/h (2 Bft)
26.07.2023 13:00 17,0 C 78 % 1011,5 hPa 1,2 l/m 6,1 km/h (2 Bft) NW 13,1 C 17,0 C 11,2 km/h (2 Bft)
26.07.2023 14:00 18,9 C 56 % 1011,6 hPa 0,0 l/m 3,6 km/h (1 Bft) NW 9,9 C 18,9 C 9,7 km/h (2 Bft)
26.07.2023 15:00 19,0 C 55 % 1011,9 hPa 0,0 l/m 5,0 km/h (1 Bft) NW 9,8 C 19,0 C 7,2 km/h (2 Bft)
26.07.2023 16:00 19,1 C 57 % 1012,0 hPa 0,0 l/m 2,5 km/h (1 Bft) NW 10,4 C 19,1 C 7,2 km/h (2 Bft)
26.07.2023 17:00 19,9 C 54 % 1012,0 hPa 0,0 l/m 3,6 km/h (1 Bft) N 10,3 C 19,9 C 6,1 km/h (2 Bft)
26.07.2023 18:00 20,2 C 55 % 1011,6 hPa 0,0 l/m 0,0 km/h (0 Bft) W 10,9 C 20,2 C 3,6 km/h (1 Bft)
26.07.2023 19:00 19,7 C 60 % 1011,4 hPa 0,0 l/m 8,6 km/h (2 Bft) W-SW 11,7 C 18,8 C 11,2 km/h (2 Bft)
26.07.2023 20:00 20,2 C 57 % 1011,4 hPa 0,0 l/m 3,6 km/h (1 Bft) W-SW 11,4 C 20,2 C 3,6 km/h (1 Bft)
26.07.2023 21:00 18,8 C 65 % 1011,9 hPa 0,0 l/m 6,1 km/h (2 Bft) SO 12,1 C 18,8 C 7,2 km/h (2 Bft)
26.07.2023 22:00 17,2 C 71 % 1012,4 hPa 0,0 l/m 3,6 km/h (1 Bft) O-SO 11,9 C 17,2 C 3,6 km/h (1 Bft)
26.07.2023 23:00 15,4 C 79 % 1012,4 hPa 0,0 l/m 1,1 km/h (1 Bft) O-NO 11,8 C 15,4 C 2,5 km/h (1 Bft)
27.07.2023 00:00 13,7 C 86 % 1012,0 hPa 0,0 l/m 2,5 km/h (1 Bft) O-NO 11,4 C 13,7 C 3,6 km/h (1 Bft)
27.07.2023 01:00 13,2 C 89 % 1011,8 hPa 0,0 l/m 1,1 km/h (1 Bft) SO 11,4 C 13,2 C 3,6 km/h (1 Bft)
27.07.2023 02:00 13,6 C 87 % 1011,6 hPa 0,0 l/m 1,1 km/h (1 Bft) O-SO 11,5 C 13,6 C 2,5 km/h (1 Bft)
27.07.2023 03:00 12,8 C 88 % 1010,9 hPa 0,0 l/m 2,5 km/h (1 Bft) SO 10,9 C 12,8 C 3,6 km/h (1 Bft)
27.07.2023 04:00 12,3 C 90 % 1010,4 hPa 0,0 l/m 2,5 km/h (1 Bft) N 10,7 C 12,3 C 3,6 km/h (1 Bft)
27.07.2023 05:00 12,5 C 90 % 1009,9 hPa 0,0 l/m 0,0 km/h (0 Bft) N 10,9 C 12,5 C 0,0 km/h (0 Bft)
27.07.2023 06:00 12,2 C 92 % 1009,5 hPa 0,0 l/m 0,0 km/h (0 Bft) N 10,9 C 12,2 C 0,0 km/h (0 Bft)
27.07.2023 07:00 12,7 C 91 % 1009,4 hPa 0,0 l/m 0,0 km/h (0 Bft) N 11,3 C 12,7 C 0,0 km/h (0 Bft)
27.07.2023 08:00 13,7 C 91 % 1009,1 hPa 0,0 l/m 0,0 km/h (0 Bft) N 12,3 C 13,7 C 0,0 km/h (0 Bft)
27.07.2023 09:00 14,9 C 89 % 1008,8 hPa 0,0 l/m 0,0 km/h (0 Bft) N 13,1 C 14,9 C 0,0 km/h (0 Bft)
27.07.2023 10:00 17,2 C 83 % 1008,7 hPa 0,0 l/m 0,0 km/h (0 Bft) SW 14,3 C 17,2 C 2,5 km/h (1 Bft)
27.07.2023 11:00 20,8 C 58 % 1008,3 hPa 0,0 l/m 6,1 km/h (2 Bft) S-SW 12,2 C 20,8 C 9,7 km/h (2 Bft)
27.07.2023 12:00 20,9 C 67 % 1008,2 hPa 0,0 l/m 13,3 km/h (3 Bft) S-SO 14,5 C 18,7 C 20,9 km/h (4 Bft)
27.07.2023 13:00 21,0 C 69 % 1008,5 hPa 0,0 l/m 11,2 km/h (2 Bft) S-SW 15,1 C 19,4 C 22,0 km/h (4 Bft)
27.07.2023 14:00 21,3 C 69 % 1008,1 hPa 0,0 l/m 12,2 km/h (2 Bft) W-SW 15,4 C 19,5 C 20,9 km/h (4 Bft)
27.07.2023 15:00 22,9 C 64 % 1007,4 hPa 0,0 l/m 9,7 km/h (2 Bft) W 15,7 C 21,9 C 13,3 km/h (3 Bft)
27.07.2023 16:00 23,9 C 60 % 1006,8 hPa 0,0 l/m 15,8 km/h (3 Bft) W-SW 15,7 C 21,8 C 24,5 km/h (4 Bft)
27.07.2023 17:00 24,4 C 59 % 1006,7 hPa 0,0 l/m 11,2 km/h (2 Bft) W-SW 15,9 C 23,3 C 17,3 km/h (3 Bft)
27.07.2023 18:00 23,0 C 65 % 1006,5 hPa 0,0 l/m 11,2 km/h (2 Bft) W-SW 16,1 C 21,7 C 14,8 km/h (3 Bft)
27.07.2023 19:00 23,7 C 63 % 1006,1 hPa 0,0 l/m 5,0 km/h (1 Bft) SW 16,2 C 23,7 C 9,7 km/h (2 Bft)
27.07.2023 20:00 23,3 C 65 % 1005,8 hPa 0,0 l/m 1,1 km/h (1 Bft) N 16,3 C 23,3 C 2,5 km/h (1 Bft)
27.07.2023 21:00 21,6 C 76 % 1005,6 hPa 0,0 l/m 0,0 km/h (0 Bft) W-NW 17,2 C 21,6 C 0,0 km/h (0 Bft)
27.07.2023 22:00 18,8 C 84 % 1005,6 hPa 0,0 l/m 2,5 km/h (1 Bft) N 16,0 C 18,8 C 3,6 km/h (1 Bft)
27.07.2023 23:00 18,6 C 84 % 1005,7 hPa 0,0 l/m 0,0 km/h (0 Bft) O-NO 15,8 C 18,6 C 3,6 km/h (1 Bft)
28.07.2023 00:00 18,2 C 85 % 1005,5 hPa 0,0 l/m 1,1 km/h (1 Bft) O-NO 15,6 C 18,2 C 2,5 km/h (1 Bft)
28.07.2023 01:00 17,0 C 89 % 1005,3 hPa 0,0 l/m 0,0 km/h (0 Bft) O-NO 15,2 C 17,0 C 0,0 km/h (0 Bft)
28.07.2023 02:00 15,8 C 92 % 1005,6 hPa 0,0 l/m 1,1 km/h (1 Bft) O-NO 14,5 C 15,8 C 2,5 km/h (1 Bft)
28.07.2023 03:00 15,5 C 94 % 1005,3 hPa 0,0 l/m 1,1 km/h (1 Bft) O-NO 14,5 C 15,5 C 2,5 km/h (1 Bft)
28.07.2023 04:00 16,0 C 94 % 1005,6 hPa 0,0 l/m 2,5 km/h (1 Bft) N 15,0 C 16,0 C 3,6 km/h (1 Bft)
28.07.2023 05:00 16,7 C 92 % 1006,0 hPa 0,0 l/m 0,0 km/h (0 Bft) N 15,4 C 16,7 C 2,5 km/h (1 Bft)
28.07.2023 06:00 16,8 C 92 % 1006,0 hPa 0,0 l/m 0,0 km/h (0 Bft) N 15,5 C 16,8 C 2,5 km/h (1 Bft)
28.07.2023 07:00 16,3 C 94 % 1006,0 hPa 0,0 l/m 0,0 km/h (0 Bft) O 15,3 C 16,3 C 0,0 km/h (0 Bft)
28.07.2023 08:00 17,1 C 93 % 1006,2 hPa 0,0 l/m 1,1 km/h (1 Bft) SW 16,0 C 17,1 C 2,5 km/h (1 Bft)
28.07.2023 09:00 20,5 C 78 % 1006,4 hPa 0,0 l/m 3,6 km/h (1 Bft) NW 16,5 C 20,5 C 6,1 km/h (2 Bft)
28.07.2023 10:00 19,8 C 86 % 1006,7 hPa 0,0 l/m 1,1 km/h (1 Bft) S 17,4 C 19,8 C 2,5 km/h (1 Bft)
28.07.2023 11:00 22,2 C 70 % 1007,3 hPa 0,0 l/m 3,6 km/h (1 Bft) W-SW 16,5 C 22,2 C 7,2 km/h (2 Bft)
28.07.2023 12:00 23,1 C 69 % 1007,3 hPa 0,0 l/m 9,7 km/h (2 Bft) W-SW 17,1 C 22,1 C 14,8 km/h (3 Bft)
28.07.2023 13:00 24,3 C 67 % 1007,4 hPa 0,0 l/m 5,0 km/h (1 Bft) S 17,8 C 24,3 C 9,7 km/h (2 Bft)
28.07.2023 14:00 23,5 C 70 % 1007,0 hPa 0,0 l/m 7,2 km/h (2 Bft) W 17,7 C 23,3 C 11,2 km/h (2 Bft)
28.07.2023 15:00 23,7 C 67 % 1007,2 hPa 0,0 l/m 8,6 km/h (2 Bft) SW 17,2 C 23,1 C 13,3 km/h (3 Bft)
28.07.2023 16:00 21,5 C 81 % 1007,7 hPa 0,3 l/m 7,2 km/h (2 Bft) SO 18,1 C 21,2 C 11,2 km/h (2 Bft)
28.07.2023 17:00 22,9 C 74 % 1007,4 hPa 0,0 l/m 7,2 km/h (2 Bft) S 18,0 C 22,6 C 7,2 km/h (2 Bft)
28.07.2023 18:00 20,6 C 85 % 1008,0 hPa 1,2 l/m 3,6 km/h (1 Bft) S-SO 18,0 C 20,6 C 6,1 km/h (2 Bft)
28.07.2023 19:00 19,3 C 96 % 1008,2 hPa 9,6 l/m 3,6 km/h (1 Bft) N 18,6 C 19,3 C 3,6 km/h (1 Bft)
28.07.2023 20:00 19,2 C 97 % 1008,1 hPa 0,0 l/m 0,0 km/h (0 Bft) N 18,7 C 19,2 C 0,0 km/h (0 Bft)
28.07.2023 21:00 18,6 C 97 % 1007,8 hPa 0,0 l/m 0,0 km/h (0 Bft) N 18,1 C 18,6 C 0,0 km/h (0 Bft)
28.07.2023 22:00 18,2 C 98 % 1008,5 hPa 0,0 l/m 0,0 km/h (0 Bft) SO 17,9 C 18,2 C 0,0 km/h (0 Bft)
28.07.2023 23:00 17,8 C 99 % 1008,2 hPa 0,0 l/m 1,1 km/h (1 Bft) N 17,6 C 17,8 C 2,5 km/h (1 Bft)
29.07.2023 00:00 17,2 C 99 % 1008,0 hPa 0,0 l/m 0,0 km/h (0 Bft) N 17,0 C 17,2 C 0,0 km/h (0 Bft)
29.07.2023 01:00 17,1 C 99 % 1008,1 hPa 0,0 l/m 0,0 km/h (0 Bft) N 16,9 C 17,1 C 0,0 km/h (0 Bft)
29.07.2023 02:00 17,1 C 99 % 1007,7 hPa 0,0 l/m 0,0 km/h (0 Bft) N 16,9 C 17,1 C 2,5 km/h (1 Bft)
29.07.2023 03:00 16,5 C 99 % 1007,3 hPa 0,0 l/m 0,0 km/h (0 Bft) N 16,3 C 16,5 C 2,5 km/h (1 Bft)
29.07.2023 04:00 16,7 C 99 % 1007,1 hPa 0,0 l/m 0,0 km/h (0 Bft) N 16,5 C 16,7 C 0,0 km/h (0 Bft)
29.07.2023 05:00 16,6 C 99 % 1006,9 hPa 0,0 l/m 0,0 km/h (0 Bft) N 16,4 C 16,6 C 0,0 km/h (0 Bft)
29.07.2023 06:00 16,5 C 99 % 1006,5 hPa 0,0 l/m 0,0 km/h (0 Bft) N 16,3 C 16,5 C 0,0 km/h (0 Bft)
29.07.2023 07:00 16,6 C 99 % 1006,6 hPa 0,0 l/m 0,0 km/h (0 Bft) N 16,4 C 16,6 C 0,0 km/h (0 Bft)
29.07.2023 08:00 17,4 C 99 % 1006,9 hPa 0,0 l/m 0,0 km/h (0 Bft) O-SO 17,2 C 17,4 C 0,0 km/h (0 Bft)
29.07.2023 09:00 18,2 C 98 % 1007,3 hPa 0,3 l/m 1,1 km/h (1 Bft) S-SO 17,9 C 18,2 C 3,6 km/h (1 Bft)
29.07.2023 10:00 20,0 C 93 % 1007,6 hPa 2,1 l/m 2,5 km/h (1 Bft) W-SW 18,8 C 20,0 C 3,6 km/h (1 Bft)
29.07.2023 11:00 22,4 C 84 % 1007,3 hPa 0,0 l/m 7,2 km/h (2 Bft) W-SW 19,6 C 22,1 C 11,2 km/h (2 Bft)
29.07.2023 12:00 23,7 C 76 % 1007,6 hPa 0,0 l/m 13,3 km/h (3 Bft) S-SW 19,2 C 22,0 C 18,4 km/h (3 Bft)
29.07.2023 13:00 25,2 C 69 % 1007,4 hPa 0,0 l/m 15,8 km/h (3 Bft) W 19,1 C 23,4 C 24,5 km/h (4 Bft)
29.07.2023 14:00 26,2 C 62 % 1007,2 hPa 0,0 l/m 13,3 km/h (3 Bft) W 18,3 C 25,0 C 18,4 km/h (3 Bft)
29.07.2023 15:00 26,2 C 62 % 1006,9 hPa 0,0 l/m 3,6 km/h (1 Bft) W-SW 18,3 C 26,2 C 7,2 km/h (2 Bft)
29.07.2023 16:00 26,8 C 62 % 1007,1 hPa 0,0 l/m 11,2 km/h (2 Bft) W 18,9 C 26,0 C 14,8 km/h (3 Bft)
29.07.2023 17:00 25,4 C 64 % 1007,1 hPa 0,0 l/m 9,7 km/h (2 Bft) W-SW 18,1 C 24,7 C 13,3 km/h (3 Bft)
29.07.2023 18:00 20,9 C 89 % 1008,1 hPa 1,2 l/m 7,2 km/h (2 Bft) W 19,0 C 20,6 C 11,2 km/h (2 Bft)
29.07.2023 19:00 22,2 C 79 % 1007,7 hPa 0,0 l/m 15,8 km/h (3 Bft) S-SO 18,4 C 19,8 C 20,9 km/h (4 Bft)
29.07.2023 20:00 21,9 C 79 % 1007,6 hPa 0,0 l/m 8,6 km/h (2 Bft) S 18,1 C 21,2 C 13,3 km/h (3 Bft)
29.07.2023 21:00 21,5 C 83 % 1007,8 hPa 0,0 l/m 2,5 km/h (1 Bft) S 18,5 C 21,5 C 3,6 km/h (1 Bft)
29.07.2023 22:00 21,5 C 79 % 1007,7 hPa 0,0 l/m 1,1 km/h (1 Bft) N 17,7 C 21,5 C 3,6 km/h (1 Bft)
29.07.2023 23:00 21,0 C 81 % 1007,8 hPa 0,0 l/m 0,0 km/h (0 Bft) W-SW 17,6 C 21,0 C 0,0 km/h (0 Bft)
30.07.2023 00:00 21,2 C 80 % 1008,3 hPa 0,0 l/m 3,6 km/h (1 Bft) SW 17,6 C 21,2 C 6,1 km/h (2 Bft)
30.07.2023 01:00 21,1 C 79 % 1008,3 hPa 0,0 l/m 9,7 km/h (2 Bft) W 17,3 C 19,9 C 11,2 km/h (2 Bft)
30.07.2023 02:00 20,7 C 80 % 1008,6 hPa 0,0 l/m 9,7 km/h (2 Bft) S-SW 17,1 C 19,5 C 14,8 km/h (3 Bft)
30.07.2023 03:00 20,4 C 82 % 1008,8 hPa 0,0 l/m 7,2 km/h (2 Bft) W-SW 17,2 C 20,1 C 9,7 km/h (2 Bft)
30.07.2023 04:00 20,3 C 82 % 1009,0 hPa 0,0 l/m 7,2 km/h (2 Bft) W 17,1 C 20,0 C 9,7 km/h (2 Bft)
30.07.2023 05:00 19,6 C 86 % 1009,0 hPa 0,0 l/m 3,6 km/h (1 Bft) W 17,2 C 19,6 C 6,1 km/h (2 Bft)
30.07.2023 06:00 19,9 C 85 % 1009,1 hPa 0,0 l/m 6,1 km/h (2 Bft) W-SW 17,3 C 19,9 C 7,2 km/h (2 Bft)
30.07.2023 07:00 19,5 C 85 % 1009,4 hPa 0,0 l/m 8,6 km/h (2 Bft) W-SW 16,9 C 18,6 C 14,8 km/h (3 Bft)
30.07.2023 08:00 20,0 C 84 % 1009,6 hPa 0,0 l/m 8,6 km/h (2 Bft) W 17,2 C 19,1 C 13,3 km/h (3 Bft)
30.07.2023 09:00 20,5 C 83 % 1010,2 hPa 0,0 l/m 7,2 km/h (2 Bft) SW 17,5 C 20,2 C 11,2 km/h (2 Bft)
30.07.2023 10:00 22,2 C 77 % 1010,4 hPa 0,0 l/m 9,7 km/h (2 Bft) SW 18,0 C 21,2 C 20,9 km/h (4 Bft)
30.07.2023 11:00 21,6 C 77 % 1010,7 hPa 0,0 l/m 11,2 km/h (2 Bft) W 17,4 C 20,1 C 14,8 km/h (3 Bft)
30.07.2023 12:00 23,3 C 61 % 1010,9 hPa 0,0 l/m 12,2 km/h (2 Bft) W 15,3 C 21,8 C 17,3 km/h (3 Bft)
30.07.2023 13:00 25,0 C 55 % 1011,3 hPa 0,0 l/m 11,2 km/h (2 Bft) N 15,3 C 23,9 C 17,3 km/h (3 Bft)
30.07.2023 14:00 21,4 C 68 % 1011,7 hPa 0,0 l/m 0,0 km/h (0 Bft) NW 15,2 C 21,4 C 2,5 km/h (1 Bft)
30.07.2023 15:00 22,3 C 65 % 1011,3 hPa 0,0 l/m 6,1 km/h (2 Bft) NW 15,4 C 22,3 C 9,7 km/h (2 Bft)
30.07.2023 16:00 22,4 C 61 % 1012,0 hPa 0,0 l/m 5,0 km/h (1 Bft) NO 14,5 C 22,4 C 9,7 km/h (2 Bft)
30.07.2023 17:00 22,0 C 60 % 1012,2 hPa 0,0 l/m 2,5 km/h (1 Bft) N-NO 13,9 C 22,0 C 7,2 km/h (2 Bft)
30.07.2023 18:00 23,7 C 52 % 1012,4 hPa 0,0 l/m 2,5 km/h (1 Bft) W-NW 13,2 C 23,7 C 6,1 km/h (2 Bft)
30.07.2023 19:00 23,5 C 52 % 1012,5 hPa 0,0 l/m 2,5 km/h (1 Bft) N-NO 13,1 C 23,5 C 7,2 km/h (2 Bft)
30.07.2023 20:00 22,0 C 55 % 1012,7 hPa 0,0 l/m 2,5 km/h (1 Bft) N 12,5 C 22,0 C 3,6 km/h (1 Bft)
30.07.2023 21:00 20,9 C 65 % 1013,2 hPa 0,0 l/m 0,0 km/h (0 Bft) N-NO 14,1 C 20,9 C 0,0 km/h (0 Bft)
30.07.2023 22:00 18,1 C 76 % 1013,4 hPa 0,0 l/m 1,1 km/h (1 Bft) N-NO 13,8 C 18,1 C 2,5 km/h (1 Bft)
30.07.2023 23:00 15,8 C 83 % 1013,5 hPa 0,0 l/m 1,1 km/h (1 Bft) O 12,9 C 15,8 C 2,5 km/h (1 Bft)
Min-Datum _ 26.07.23 30.07.23 25.07.23 - 24.07.23 - 26.07.23 26.07.23 24.07.23
_ Min-Zeit 07:21 18:21 06:21 - 00:21 - 15:21 07:21 01:21
Minimum _ 12,2 C 52 % 1001,1 hPa - 0,0 km/h (0 Bft) - 9,8 C 12,2 C 0,0 km/h (0 Bft)
Max-Datum _ 29.07.23 28.07.23 30.07.23 28.07.23 25.07.23 - 29.07.23 29.07.23 25.07.23
_ Max-Zeit 16:21 23:21 23:21 19:21 11:21 - 11:21 15:21 11:21
Maximum _ 26,8 C 99 % 1013,5 hPa 9,6 l/m 15,8 km/h
S-SW (3 Bft)
- 19,6 C 26,2 C 24,5 km/h
S-SW (4 Bft)
Durchschnitt _ 18,8 C 81 % 1007,3 hPa #34,8 l/m 4,1 km/h (1 Bft) W-SW 15,3 C 18,5 C 6,7 km/h (2 Bft)
www.sexauwetter.de